Time;durP1;ratioP1;P1;durP2;ratioP2;P2;SDS_P1;SDS_P2;PMS_P1;PMS_P2;Temp;Humidity;BMP_temperature;BMP_pressure;BME280_temperature;BME280_humidity;BME280_pressure;Samples;Min_cycle;Max_cycle;Signal;HPM_P1;HPM_P2
2022/12/02 00:02:23;;;;;;;56.53;30.95;;;-8.60;96.20;;;;;;5035275;27;2550565;-78
2022/12/02 00:05:17;;;;;;;64.72;31.02;;;-8.60;96.20;;;;;;5088489;28;20025;-79
2022/12/02 00:07:44;;;;;;;60.70;28.92;;;-8.60;96.10;;;;;;5072776;28;20025;-79
2022/12/02 00:10:25;;;;;;;56.22;29.90;;;-8.50;96.10;;;;;;5091233;28;20020;-79
2022/12/02 00:12:52;;;;;;;55.15;28.75;;;-8.50;96.10;;;;;;5076256;28;20104;-79
2022/12/02 00:15:42;;;;;;;60.58;30.38;;;-8.40;96.10;;;;;;5082503;28;20095;-78
2022/12/02 00:18:10;;;;;;;68.45;32.28;;;-8.40;96.10;;;;;;5089533;28;20357;-78
2022/12/02 00:20:36;;;;;;;55.45;27.52;;;-8.30;96.00;;;;;;5088087;28;20039;-78
2022/12/02 00:23:02;;;;;;;53.15;29.35;;;-8.30;95.80;;;;;;5070975;28;20048;-80
2022/12/02 00:25:27;;;;;;;57.20;27.95;;;-8.40;95.60;;;;;;5085353;28;20024;-79
2022/12/02 00:27:53;;;;;;;62.80;28.05;;;-8.40;95.40;;;;;;5077599;28;20055;-81
2022/12/02 00:30:19;;;;;;;57.30;31.23;;;-8.50;95.20;;;;;;5090453;28;20037;-79
2022/12/02 00:32:45;;;;;;;66.32;31.00;;;-8.60;95.10;;;;;;5074327;28;20027;-78
2022/12/02 00:35:11;;;;;;;57.58;27.65;;;-8.70;95.10;;;;;;5084624;28;20036;-79
2022/12/02 00:37:36;;;;;;;50.95;27.40;;;-8.70;95.30;;;;;;5078446;28;20016;-78
2022/12/02 00:40:03;;;;;;;55.28;27.38;;;-8.70;95.40;;;;;;5088601;28;20070;-78
2022/12/02 00:42:28;;;;;;;53.88;25.77;;;-8.60;95.50;;;;;;5075163;28;20035;-78
2022/12/02 00:47:39;;;;;;;62.40;29.55;;;-8.50;95.70;;;;;;5071230;28;20452;-77
2022/12/02 00:50:06;;;;;;;62.13;28.45;;;-8.40;95.70;;;;;;5071233;28;20025;-79
2022/12/02 00:52:32;;;;;;;65.57;30.80;;;-8.40;95.60;;;;;;5070105;28;20028;-79
2022/12/02 00:54:57;;;;;;;55.13;29.35;;;-8.30;95.60;;;;;;5085026;28;20033;-78
2022/12/02 00:57:24;;;;;;;66.68;31.30;;;-8.30;95.60;;;;;;5079644;28;20035;-80
2022/12/02 00:59:50;;;;;;;56.70;29.83;;;-8.20;95.60;;;;;;5084649;28;20024;-79
2022/12/02 01:02:16;;;;;;;54.15;27.25;;;-8.20;95.60;;;;;;5088745;28;20101;-77
2022/12/02 01:04:42;;;;;;;57.70;31.10;;;-8.20;95.40;;;;;;5093525;28;20019;-79
2022/12/02 01:07:08;;;;;;;50.97;29.48;;;-8.20;95.40;;;;;;5095033;28;20082;-79
2022/12/02 01:09:34;;;;;;;57.50;25.08;;;-8.30;95.20;;;;;;5099374;28;20020;-79
2022/12/02 01:11:59;;;;;;;60.47;27.67;;;-8.30;94.90;;;;;;5105181;28;20024;-80
2022/12/02 01:14:25;;;;;;;65.28;30.70;;;-8.40;94.90;;;;;;5097592;28;20053;-78
2022/12/02 01:16:51;;;;;;;42.95;23.83;;;-8.50;95.00;;;;;;5082098;28;20381;-79
2022/12/02 01:19:17;;;;;;;63.63;37.70;;;-8.50;95.00;;;;;;5076528;28;20024;-79
2022/12/02 01:21:43;;;;;;;59.92;30.23;;;-8.60;95.00;;;;;;5064220;28;20033;-80
2022/12/02 01:24:09;;;;;;;60.63;29.15;;;-8.60;95.10;;;;;;5088804;28;20359;-79
2022/12/02 01:26:35;;;;;;;55.30;29.27;;;-8.60;95.30;;;;;;5085761;28;20027;-80
2022/12/02 01:29:00;;;;;;;58.03;29.70;;;-8.60;95.40;;;;;;5079850;28;20019;-80
2022/12/02 01:31:26;;;;;;;55.22;28.70;;;-8.50;95.50;;;;;;5088893;28;20028;-79
2022/12/02 01:33:52;;;;;;;55.05;30.02;;;-8.40;95.60;;;;;;5087348;28;20020;-80
2022/12/02 01:36:18;;;;;;;56.20;30.27;;;-8.30;95.50;;;;;;5088718;28;20035;-79
2022/12/02 01:38:44;;;;;;;51.83;29.50;;;-8.20;95.40;;;;;;5084688;28;20385;-78
2022/12/02 01:41:10;;;;;;;61.42;28.88;;;-8.20;95.30;;;;;;5069837;28;20040;-79
2022/12/02 01:43:35;;;;;;;63.95;30.10;;;-8.20;95.20;;;;;;5078715;28;20038;-80
2022/12/02 01:46:02;;;;;;;56.95;27.85;;;-8.20;95.20;;;;;;5084733;28;20035;-79
2022/12/02 01:48:29;;;;;;;59.30;30.65;;;-8.20;95.10;;;;;;5094298;28;20024;-79
2022/12/02 01:50:54;;;;;;;52.03;27.25;;;-8.20;95.10;;;;;;5084870;28;20106;-78
2022/12/02 01:53:21;;;;;;;65.47;28.92;;;-8.30;95.00;;;;;;5080749;28;20478;-80
2022/12/02 01:55:46;;;;;;;48.33;26.67;;;-8.40;94.80;;;;;;5065370;28;20048;-79
2022/12/02 01:58:13;;;;;;;60.45;28.00;;;-8.40;94.90;;;;;;5090202;28;20016;-79
2022/12/02 02:00:39;;;;;;;56.13;32.10;;;-8.40;95.10;;;;;;5090049;28;20028;-79
2022/12/02 02:03:05;;;;;;;47.83;23.60;;;-8.40;95.20;;;;;;5085793;28;20044;-79
2022/12/02 02:05:34;;;;;;;49.92;26.10;;;-8.40;95.20;;;;;;5085451;28;20025;-79
2022/12/02 02:08:09;;;;;;;52.03;25.63;;;-8.40;95.20;;;;;;5092527;28;20027;-79
2022/12/02 02:10:37;;;;;;;49.65;25.63;;;-8.40;95.10;;;;;;5087750;28;20031;-79
2022/12/02 02:13:04;;;;;;;43.75;23.42;;;-8.40;95.10;;;;;;5056130;28;20038;-79
2022/12/02 02:15:30;;;;;;;49.05;24.20;;;-8.40;95.20;;;;;;5075906;28;20111;-79
2022/12/02 02:17:57;;;;;;;55.45;28.58;;;-8.50;95.20;;;;;;5075535;28;20401;-79
2022/12/02 02:20:24;;;;;;;50.80;24.35;;;-8.50;95.30;;;;;;5079252;28;20028;-79
2022/12/02 02:23:05;;;;;;;58.78;27.80;;;-8.50;95.40;;;;;;5077546;28;20108;-79
2022/12/02 02:25:43;;;;;;;55.58;27.73;;;-8.40;95.60;;;;;;5079563;28;20354;-79
2022/12/02 02:28:09;;;;;;;59.22;28.15;;;-8.30;95.60;;;;;;5089685;28;20024;-78
2022/12/02 02:30:36;;;;;;;52.25;26.00;;;-8.30;95.50;;;;;;5067567;28;20377;-79
2022/12/02 02:33:05;;;;;;;50.05;26.75;;;-8.20;95.60;;;;;;5085031;28;20020;-78
2022/12/02 02:35:33;;;;;;;49.25;29.48;;;-8.20;95.60;;;;;;5083253;28;20459;-80
2022/12/02 02:37:59;;;;;;;48.45;26.17;;;-8.10;95.60;;;;;;5092571;28;20044;-78
2022/12/02 02:40:27;;;;;;;45.47;27.65;;;-8.10;95.60;;;;;;5066584;28;20036;-80
2022/12/02 02:42:57;;;;;;;53.08;28.33;;;-8.10;95.60;;;;;;5087208;28;20362;-79
2022/12/02 02:45:25;;;;;;;51.70;27.92;;;-8.10;95.40;;;;;;5085112;28;20398;-78
2022/12/02 02:47:53;;;;;;;45.60;25.20;;;-8.10;95.40;;;;;;5082068;28;20070;-79
2022/12/02 02:50:21;;;;;;;49.45;23.55;;;-8.10;95.40;;;;;;5082624;28;20016;-78
2022/12/02 02:52:47;;;;;;;47.38;25.02;;;-8.10;95.40;;;;;;5083946;28;20370;-79
2022/12/02 02:55:18;;;;;;;53.42;27.17;;;-8.00;95.40;;;;;;5079347;28;20020;-79
2022/12/02 02:57:44;;;;;;;47.22;27.90;;;-8.00;95.40;;;;;;5085731;28;20099;-78
2022/12/02 03:00:11;;;;;;;39.30;23.85;;;-8.00;95.40;;;;;;5078493;28;20024;-79
2022/12/02 03:02:37;;;;;;;56.25;29.27;;;-8.00;95.40;;;;;;5085528;28;20048;-78
2022/12/02 03:05:05;;;;;;;53.92;28.00;;;-8.00;95.20;;;;;;5063517;28;20056;-78
2022/12/02 03:07:31;;;;;;;48.35;27.00;;;-8.00;95.10;;;;;;5091813;28;20020;-79
2022/12/02 03:09:57;;;;;;;41.22;22.88;;;-8.00;94.90;;;;;;5088614;28;20353;-79
2022/12/02 03:12:23;;;;;;;57.20;29.73;;;-8.10;94.80;;;;;;5078704;28;20070;-80
2022/12/02 03:14:49;;;;;;;49.00;25.17;;;-8.20;94.80;;;;;;5081138;28;20113;-78
2022/12/02 03:17:16;;;;;;;63.38;30.58;;;-8.20;94.80;;;;;;5075059;28;20059;-79
2022/12/02 03:19:42;;;;;;;63.70;30.35;;;-8.30;94.90;;;;;;5074700;28;20485;-81
2022/12/02 03:22:10;;;;;;;55.35;30.75;;;-8.20;95.00;;;;;;5058215;28;20123;-81
2022/12/02 03:24:36;;;;;;;61.17;32.55;;;-8.20;95.10;;;;;;5085202;28;20527;-80
2022/12/02 03:27:04;;;;;;;61.15;32.28;;;-8.30;95.00;;;;;;5078912;28;20016;-81
2022/12/02 03:29:31;;;;;;;51.47;28.63;;;-8.30;95.00;;;;;;5079117;28;20059;-81
2022/12/02 03:31:59;;;;;;;42.08;25.95;;;-8.30;95.10;;;;;;5074531;28;20031;-78
2022/12/02 03:34:26;;;;;;;56.30;32.25;;;-8.30;95.10;;;;;;5075872;28;20017;-81
2022/12/02 03:36:52;;;;;;;52.97;27.75;;;-8.40;95.10;;;;;;5074965;28;20036;-79
2022/12/02 03:39:18;;;;;;;65.17;37.80;;;-8.40;95.10;;;;;;5078094;28;20427;-78
2022/12/02 03:41:46;;;;;;;68.75;37.78;;;-8.40;95.20;;;;;;5092037;28;20448;-78
2022/12/02 03:44:14;;;;;;;63.53;34.78;;;-8.40;95.20;;;;;;5080659;28;20020;-79
2022/12/02 03:46:41;;;;;;;63.03;33.60;;;-8.40;95.20;;;;;;5076631;28;20025;-79
2022/12/02 03:49:07;;;;;;;49.47;25.83;;;-8.50;95.20;;;;;;5081916;28;20016;-78
2022/12/02 03:51:33;;;;;;;61.42;34.63;;;-8.50;95.30;;;;;;5079816;28;20538;-80
2022/12/02 03:54:00;;;;;;;72.38;38.30;;;-8.50;95.40;;;;;;5084534;28;20016;-78
2022/12/02 03:56:26;;;;;;;67.40;39.30;;;-8.50;95.70;;;;;;5084433;28;20035;-80
2022/12/02 03:58:52;;;;;;;62.15;35.33;;;-8.50;95.80;;;;;;5085230;28;20108;-79
2022/12/02 04:01:20;;;;;;;59.03;32.90;;;-8.50;95.70;;;;;;5090376;28;20102;-80
2022/12/02 04:03:46;;;;;;;56.88;29.15;;;-8.60;95.70;;;;;;5095861;28;20059;-80
2022/12/02 04:06:13;;;;;;;55.78;33.47;;;-8.60;95.70;;;;;;5103234;28;20077;-81
2022/12/02 04:08:39;;;;;;;60.42;34.80;;;-8.50;95.80;;;;;;5089879;28;20104;-78
2022/12/02 04:11:05;;;;;;;55.00;31.85;;;-8.50;96.00;;;;;;5093030;28;20067;-81
2022/12/02 04:13:31;;;;;;;45.85;26.35;;;-8.50;95.80;;;;;;5079126;28;20020;-80
2022/12/02 04:15:57;;;;;;;68.90;35.78;;;-8.50;95.70;;;;;;5058076;28;20050;-80
2022/12/02 04:18:23;;;;;;;51.30;31.13;;;-8.50;95.80;;;;;;5074405;28;20104;-81
2022/12/02 04:20:49;;;;;;;56.92;32.03;;;-8.50;95.80;;;;;;5079853;28;20024;-81
2022/12/02 04:23:15;;;;;;;56.10;31.25;;;-8.50;95.80;;;;;;5062837;28;20486;-80
2022/12/02 04:25:43;;;;;;;65.18;32.63;;;-8.40;95.80;;;;;;5077502;28;20032;-79
2022/12/02 04:28:09;;;;;;;67.78;33.00;;;-8.50;95.60;;;;;;5058177;28;20027;-79
2022/12/02 04:30:35;;;;;;;63.50;35.80;;;-8.50;95.70;;;;;;5080641;28;20016;-81
2022/12/02 04:33:01;;;;;;;59.00;33.20;;;-8.50;95.60;;;;;;5076508;28;20112;-80
2022/12/02 04:35:26;;;;;;;54.13;32.25;;;-8.50;95.60;;;;;;5078999;28;20019;-81
2022/12/02 04:37:54;;;;;;;55.00;31.25;;;-8.50;95.60;;;;;;5083464;28;20044;-80
2022/12/02 04:40:20;;;;;;;60.80;33.40;;;-8.50;95.60;;;;;;5081289;28;20040;-80
2022/12/02 04:42:46;;;;;;;53.65;30.15;;;-8.50;95.70;;;;;;5065675;28;20055;-81
2022/12/02 04:45:12;;;;;;;57.47;30.75;;;-8.50;95.60;;;;;;5089217;28;20115;-78
2022/12/02 04:47:37;;;;;;;58.90;31.08;;;-8.40;95.70;;;;;;5062381;28;20024;-79
2022/12/02 04:50:04;;;;;;;49.88;28.90;;;-8.40;95.80;;;;;;5084699;28;20366;-79
2022/12/02 04:52:30;;;;;;;61.05;29.90;;;-8.40;95.70;;;;;;5084927;28;20020;-80
2022/12/02 04:54:56;;;;;;;52.17;30.23;;;-8.30;95.80;;;;;;5084692;28;20028;-80
2022/12/02 04:57:22;;;;;;;61.08;32.22;;;-8.30;95.60;;;;;;5085559;28;20371;-80
2022/12/02 04:59:48;;;;;;;51.78;26.67;;;-8.20;95.60;;;;;;5085531;28;20020;-79
2022/12/02 05:02:13;;;;;;;50.33;29.02;;;-8.20;95.40;;;;;;5094686;28;20473;-80
2022/12/02 05:04:39;;;;;;;55.83;31.45;;;-8.30;95.30;;;;;;5086690;28;20103;-80
2022/12/02 05:07:05;;;;;;;57.67;32.03;;;-8.30;95.30;;;;;;5084439;28;20520;-81
2022/12/02 05:09:31;;;;;;;53.10;28.95;;;-8.30;95.40;;;;;;5094927;28;20020;-79
2022/12/02 05:11:57;;;;;;;62.40;32.95;;;-8.30;95.30;;;;;;5079169;28;20021;-79
2022/12/02 05:14:23;;;;;;;59.70;32.47;;;-8.40;95.20;;;;;;5075066;28;20096;-78
2022/12/02 05:16:48;;;;;;;48.75;29.90;;;-8.40;95.40;;;;;;5056851;28;20020;-79
2022/12/02 05:19:14;;;;;;;52.20;31.27;;;-8.30;95.50;;;;;;5075936;28;20543;-80
2022/12/02 05:21:40;;;;;;;52.95;29.45;;;-8.30;95.50;;;;;;5069148;28;20189;-80
2022/12/02 05:24:06;;;;;;;62.55;33.03;;;-8.30;95.50;;;;;;5093161;28;20381;-82
2022/12/02 05:26:32;;;;;;;58.83;30.20;;;-8.20;95.50;;;;;;5094868;28;20085;-80
2022/12/02 05:28:58;;;;;;;60.15;31.00;;;-8.20;95.40;;;;;;5092757;28;20020;-79
2022/12/02 05:31:24;;;;;;;64.07;33.08;;;-8.20;95.50;;;;;;5079457;28;20024;-80
2022/12/02 05:33:49;;;;;;;60.88;31.13;;;-8.20;95.40;;;;;;5094892;28;20024;-80
2022/12/02 05:36:15;;;;;;;53.65;28.55;;;-8.20;95.50;;;;;;5076991;28;20111;-81
2022/12/02 05:38:41;;;;;;;50.05;28.90;;;-8.20;95.40;;;;;;5079726;28;20021;-80
2022/12/02 05:41:07;;;;;;;62.15;33.38;;;-8.30;95.20;;;;;;5080877;28;20028;-81
2022/12/02 05:43:39;;;;;;;50.03;27.23;;;-8.30;95.40;;;;;;5086719;28;20042;-83
2022/12/02 05:46:14;;;;;;;66.47;33.75;;;-8.30;95.50;;;;;;5078340;28;20496;-81
2022/12/02 05:48:41;;;;;;;48.10;25.35;;;-8.30;95.50;;;;;;5088343;28;20038;-81
2022/12/02 05:51:19;;;;;;;47.90;28.55;;;-8.30;95.40;;;;;;5093053;28;20032;-81
2022/12/02 05:53:46;;;;;;;51.45;25.75;;;-8.30;95.40;;;;;;5097246;28;20051;-81
2022/12/02 05:56:25;;;;;;;47.90;26.27;;;-8.30;95.40;;;;;;5100511;28;20027;-81
2022/12/02 05:58:52;;;;;;;53.72;26.15;;;-8.30;95.50;;;;;;5087997;28;20047;-80
2022/12/02 06:01:46;;;;;;;53.88;25.45;;;-8.20;95.50;;;;;;5077815;28;20028;-80
2022/12/02 06:04:19;;;;;;;61.20;27.42;;;-8.20;95.60;;;;;;5084695;28;20047;-80
2022/12/02 06:06:45;;;;;;;47.45;29.33;;;-8.10;95.60;;;;;;5093844;28;20017;-80
2022/12/02 06:09:24;;;;;;;48.20;24.95;;;-8.10;95.60;;;;;;5093199;28;20427;-79
2022/12/02 06:11:51;;;;;;;55.33;28.67;;;-8.00;95.60;;;;;;5061313;28;20487;-79
2022/12/02 06:14:23;;;;;;;54.70;28.30;;;-8.00;95.60;;;;;;5074340;28;20036;-79
2022/12/02 06:17:00;;;;;;;41.45;25.55;;;-8.00;95.40;;;;;;5076091;28;20024;-80
2022/12/02 06:19:48;;;;;;;43.05;27.58;;;-8.00;95.40;;;;;;5082734;28;20024;-80
2022/12/02 06:22:26;;;;;;;44.22;25.83;;;-7.90;95.40;;;;;;5061513;28;20032;-78
2022/12/02 06:24:56;;;;;;;41.35;23.80;;;-7.90;95.30;;;;;;5077502;28;20100;-79
2022/12/02 06:27:22;;;;;;;48.38;26.77;;;-7.90;95.20;;;;;;5097317;28;20100;-80
2022/12/02 06:30:00;;;;;;;49.95;26.67;;;-7.90;95.30;;;;;;5080552;28;20021;-80
2022/12/02 06:32:39;;;;;;;48.92;25.30;;;-7.80;95.30;;;;;;5088693;28;20410;-79
2022/12/02 06:35:23;;;;;;;50.28;27.48;;;-7.80;95.30;;;;;;5080032;28;20025;-81
2022/12/02 06:37:50;;;;;;;61.92;27.52;;;-7.80;95.30;;;;;;5091830;28;20047;-81
2022/12/02 06:40:23;;;;;;;44.80;24.42;;;-7.70;95.00;;;;;;5085293;28;20485;-80
2022/12/02 06:42:49;;;;;;;48.10;27.65;;;-7.80;94.80;;;;;;5082934;28;20138;-80
2022/12/02 06:45:32;;;;;;;58.00;32.70;;;-7.80;94.60;;;;;;5094522;28;20028;-81
2022/12/02 06:48:12;;;;;;;53.20;30.13;;;-8.00;94.70;;;;;;5086544;28;20027;-81
2022/12/02 06:50:41;;;;;;;50.63;25.83;;;-8.00;94.90;;;;;;5092888;28;20381;-81
2022/12/02 06:53:24;;;;;;;46.53;24.27;;;-8.00;95.10;;;;;;5081981;28;20025;-81
2022/12/02 06:55:56;;;;;;;46.60;27.35;;;-8.00;95.20;;;;;;5085906;28;20030;-79
2022/12/02 06:58:33;;;;;;;48.22;24.92;;;-8.10;95.00;;;;;;5078623;28;20385;-80
2022/12/02 07:01:19;;;;;;;49.65;28.88;;;-8.10;95.00;;;;;;5068659;28;20034;-81
2022/12/02 07:04:04;;;;;;;29.53;16.47;;;-8.10;95.10;;;;;;5090980;28;20051;-79
2022/12/02 07:06:31;;;;;;;52.95;29.60;;;-8.10;95.10;;;;;;5067959;28;20123;-79
2022/12/02 07:09:01;;;;;;;;;;;-8.10;95.00;;;;;;5097575;28;20016;-81
2022/12/02 07:11:50;;;;;;;35.50;17.00;;;-8.10;95.00;;;;;;5075584;28;19904;-79
2022/12/02 07:14:37;;;;;;;46.05;26.48;;;-8.10;94.90;;;;;;5072925;28;20050;-80
2022/12/02 07:17:18;;;;;;;48.63;25.15;;;-8.10;95.00;;;;;;5074735;28;20023;-80
2022/12/02 07:19:46;;;;;;;46.15;23.73;;;-8.10;95.10;;;;;;5073912;28;20079;-80
2022/12/02 07:22:20;;;;;;;34.80;19.50;;;-8.00;95.10;;;;;;5080164;28;20123;-81
2022/12/02 07:24:53;;;;;;;43.10;25.73;;;-8.00;95.20;;;;;;5083453;28;20403;-80
2022/12/02 07:27:30;;;;;;;42.65;22.42;;;-7.90;95.30;;;;;;5089058;28;20059;-80
2022/12/02 07:29:56;;;;;;;46.65;25.42;;;-7.90;95.20;;;;;;5083106;28;20032;-80
2022/12/02 07:32:23;;;;;;;37.95;21.60;;;-7.90;95.20;;;;;;5092032;28;20032;-78
2022/12/02 07:34:49;;;;;;;46.10;25.40;;;-7.80;95.00;;;;;;5092093;28;20023;-80
2022/12/02 07:37:15;;;;;;;50.83;24.95;;;-7.90;95.00;;;;;;5094232;28;20062;-81
2022/12/02 07:39:41;;;;;;;51.80;26.50;;;-7.90;94.90;;;;;;5080724;28;20020;-80
2022/12/02 07:42:06;;;;;;;46.70;25.30;;;-7.80;95.10;;;;;;5093376;28;20035;-80
2022/12/02 07:44:32;;;;;;;47.83;25.90;;;-7.70;95.20;;;;;;5092632;28;20016;-83
2022/12/02 07:46:58;;;;;;;55.60;25.30;;;-7.60;95.30;;;;;;5073955;28;20504;-80
2022/12/02 07:49:24;;;;;;;53.00;33.22;;;-7.50;95.30;;;;;;5083105;28;20048;-80
2022/12/02 07:51:53;;;;;;;59.08;29.33;;;-7.40;95.20;;;;;;5094072;28;20554;-79
2022/12/02 07:54:19;;;;;;;52.55;28.50;;;-7.30;95.10;;;;;;5091742;28;20385;-79
2022/12/02 07:56:45;;;;;;;43.95;23.38;;;-7.30;94.70;;;;;;5086070;28;20020;-80
2022/12/02 07:59:10;;;;;;;58.40;27.75;;;-7.20;94.40;;;;;;5085170;28;20116;-81
2022/12/02 08:01:51;;;;;;;57.25;32.05;;;-7.20;94.40;;;;;;5091851;28;20042;-82
2022/12/02 08:04:16;;;;;;;47.00;25.58;;;-7.20;94.10;;;;;;5082275;28;20057;-81
2022/12/02 08:06:42;;;;;;;51.00;29.33;;;-7.20;93.60;;;;;;5090064;28;20055;-81
2022/12/02 08:09:09;;;;;;;54.53;27.08;;;-7.30;93.60;;;;;;5075793;28;20024;-80
2022/12/02 08:11:35;;;;;;;51.28;28.63;;;-7.20;93.70;;;;;;5080347;28;20031;-80
2022/12/02 08:14:01;;;;;;;58.33;31.00;;;-7.20;93.50;;;;;;5081457;28;20025;-79
2022/12/02 08:16:27;;;;;;;68.63;29.55;;;-7.20;93.40;;;;;;5071812;28;20822;-80
2022/12/02 08:18:56;;;;;;;64.10;36.67;;;-7.20;93.60;;;;;;5092223;28;20109;-81
2022/12/02 08:21:22;;;;;;;51.30;28.95;;;-7.20;93.70;;;;;;5096775;28;20031;-81
2022/12/02 08:23:48;;;;;;;55.03;32.90;;;-7.20;93.40;;;;;;5087033;28;20141;-80
2022/12/02 08:26:14;;;;;;;49.53;30.08;;;-7.10;93.50;;;;;;5102410;28;20024;-78
2022/12/02 08:28:40;;;;;;;50.22;31.15;;;-7.00;93.40;;;;;;5097972;28;20017;-79
2022/12/02 08:31:06;;;;;;;50.50;27.23;;;-7.00;93.50;;;;;;5089486;28;20055;-80
2022/12/02 08:33:32;;;;;;;63.78;27.05;;;-6.90;93.60;;;;;;5095736;28;20055;-81
2022/12/02 08:35:58;;;;;;;46.13;25.10;;;-6.80;93.70;;;;;;5092192;28;20035;-80
2022/12/02 08:38:24;;;;;;;53.40;30.75;;;-6.70;93.60;;;;;;5085582;28;20196;-80
2022/12/02 08:40:50;;;;;;;56.75;26.77;;;-6.70;93.50;;;;;;5078093;28;20036;-79
2022/12/02 08:43:16;;;;;;;50.90;25.40;;;-6.70;93.10;;;;;;5088510;28;20074;-81
2022/12/02 08:45:42;;;;;;;55.17;27.50;;;-6.70;93.30;;;;;;5095464;28;20020;-78
2022/12/02 08:48:08;;;;;;;49.27;27.60;;;-6.80;92.80;;;;;;5077201;28;20023;-82
2022/12/02 08:50:34;;;;;;;50.22;28.08;;;-6.80;92.90;;;;;;5083519;28;20280;-81
2022/12/02 08:53:00;;;;;;;58.25;30.05;;;-6.80;93.20;;;;;;5094925;28;20020;-80
2022/12/02 08:55:26;;;;;;;64.57;34.63;;;-6.80;93.10;;;;;;5095936;28;20030;-81
2022/12/02 08:57:52;;;;;;;50.13;28.00;;;-6.80;93.00;;;;;;5096590;28;20026;-80
2022/12/02 09:00:19;;;;;;;36.33;20.60;;;-6.70;92.90;;;;;;5087417;28;20059;-80
2022/12/02 09:02:44;;;;;;;43.47;25.40;;;-6.70;92.70;;;;;;5090236;28;20036;-81
2022/12/02 09:05:10;;;;;;;42.40;27.23;;;-6.70;92.40;;;;;;5088052;28;20047;-83
2022/12/02 09:07:36;;;;;;;48.80;27.50;;;-6.80;92.50;;;;;;5083872;28;20088;-81
2022/12/02 09:10:05;;;;;;;37.22;21.38;;;-6.80;92.60;;;;;;5098732;28;20110;-85
2022/12/02 09:12:31;;;;;;;52.58;33.72;;;-6.80;92.50;;;;;;5086248;28;20024;-82
2022/12/02 09:14:57;;;;;;;57.28;28.92;;;-6.80;92.40;;;;;;5076390;28;20085;-79
2022/12/02 09:17:23;;;;;;;64.90;30.73;;;-6.80;92.40;;;;;;5094094;28;20019;-79
2022/12/02 09:19:49;;;;;;;55.80;32.35;;;-6.70;92.60;;;;;;5095045;28;20047;-79
2022/12/02 09:22:15;;;;;;;64.93;33.33;;;-6.70;92.70;;;;;;5075068;28;20036;-82
2022/12/02 09:24:41;;;;;;;58.60;29.90;;;-6.60;92.60;;;;;;5095353;28;20020;-82
2022/12/02 09:27:06;;;;;;;67.30;31.63;;;-6.60;92.30;;;;;;5094991;28;20031;-81
2022/12/02 09:29:33;;;;;;;55.63;28.95;;;-6.60;92.30;;;;;;5083800;28;20023;-81
2022/12/02 09:31:59;;;;;;;55.08;33.38;;;-6.60;92.10;;;;;;5094675;28;20024;-79
2022/12/02 09:34:25;;;;;;;61.13;35.67;;;-6.60;92.10;;;;;;5094060;28;20028;-79
2022/12/02 09:36:51;;;;;;;54.50;33.70;;;-6.70;92.00;;;;;;5075975;28;20031;-81
2022/12/02 09:39:17;;;;;;;59.08;28.35;;;-6.70;91.90;;;;;;5090130;28;20024;-79
2022/12/02 09:41:43;;;;;;;66.70;28.88;;;-6.80;91.50;;;;;;5065553;28;20408;-78
2022/12/02 09:44:10;;;;;;;61.17;32.05;;;-6.80;91.70;;;;;;5095185;28;20020;-81
2022/12/02 09:46:36;;;;;;;50.25;30.48;;;-6.90;91.80;;;;;;5095587;28;20032;-81
2022/12/02 09:49:02;;;;;;;59.15;29.95;;;-6.90;92.00;;;;;;5066520;28;20028;-81
2022/12/02 09:51:28;;;;;;;58.42;30.52;;;-6.90;92.00;;;;;;5094144;28;20038;-80
2022/12/02 09:53:55;;;;;;;52.22;26.90;;;-6.90;92.20;;;;;;5089319;28;20016;-82
2022/12/02 09:56:21;;;;;;;41.05;22.45;;;-6.80;92.40;;;;;;5090407;28;20104;-82
2022/12/02 09:58:51;;;;;;;51.15;28.58;;;-6.60;92.50;;;;;;5072435;28;20024;-82
2022/12/02 10:01:17;;;;;;;47.38;24.95;;;-6.60;92.20;;;;;;5082171;28;20036;-81
2022/12/02 10:03:44;;;;;;;59.60;27.35;;;-6.50;91.60;;;;;;5068688;28;20048;-84
2022/12/02 10:06:21;;;;;;;52.13;28.67;;;-6.60;91.40;;;;;;5097397;28;20077;-82
2022/12/02 10:08:47;;;;;;;;;;;-6.50;91.60;;;;;;5096512;28;20420;-84
2022/12/02 10:11:34;;;;;;;46.95;25.05;;;-6.50;91.70;;;;;;5104541;28;19904;-81
2022/12/02 10:14:05;;;;;;;49.40;27.95;;;-6.40;91.70;;;;;;5098719;28;20107;-90
2022/12/02 10:16:33;;;;;;;46.05;26.77;;;-6.30;91.50;;;;;;5062590;28;20389;-80
2022/12/02 10:19:01;;;;;;;42.80;23.02;;;-6.30;91.10;;;;;;5077351;28;20016;-82
2022/12/02 10:21:27;;;;;;;38.45;25.35;;;-6.30;91.00;;;;;;5095114;28;20533;-80
2022/12/02 10:24:04;;;;;;;49.92;30.20;;;-6.40;90.90;;;;;;5095188;28;20044;-83
2022/12/02 10:26:48;;;;;;;46.97;26.15;;;-6.40;91.00;;;;;;5094663;28;20093;-84
2022/12/02 10:29:27;;;;;;;42.38;24.02;;;-6.40;91.10;;;;;;5076054;28;20034;-82
2022/12/02 10:32:01;;;;;;;43.88;23.00;;;-6.30;91.20;;;;;;5094315;28;20024;-82
2022/12/02 10:34:29;;;;;;;38.50;24.55;;;-6.40;91.10;;;;;;5076842;28;20027;-80
2022/12/02 10:36:55;;;;;;;53.30;26.08;;;-6.40;91.00;;;;;;5095305;28;20353;-82
2022/12/02 10:39:29;;;;;;;39.47;22.25;;;-6.40;91.00;;;;;;5098112;28;20027;-80
2022/12/02 10:42:04;;;;;;;44.70;22.88;;;-6.40;90.90;;;;;;5096631;28;20039;-81
2022/12/02 10:44:35;;;;;;;31.67;21.08;;;-6.40;90.80;;;;;;5093493;28;20012;-81
2022/12/02 10:47:20;;;;;;;37.83;23.15;;;-6.40;90.80;;;;;;5095052;28;20020;-81
2022/12/02 10:49:57;;;;;;;34.63;21.92;;;-6.40;90.80;;;;;;5075168;28;20051;-84
2022/12/02 10:52:59;;;;;;;29.80;18.95;;;-6.30;90.70;;;;;;5093669;28;20066;-83
2022/12/02 10:55:26;;;;;;;31.45;19.95;;;-6.30;90.60;;;;;;5082563;28;20032;-81
2022/12/02 10:57:54;;;;;;;32.88;20.23;;;-6.30;90.50;;;;;;5092969;28;20450;-80
2022/12/02 11:00:23;;;;;;;36.70;21.73;;;-6.40;90.40;;;;;;5093146;28;20028;-79
2022/12/02 11:02:55;;;;;;;52.72;25.83;;;-6.40;90.40;;;;;;5094148;28;20048;-79
2022/12/02 11:05:23;;;;;;;41.83;23.10;;;-6.40;90.40;;;;;;5094369;28;20446;-80
2022/12/02 11:08:02;;;;;;;45.67;24.30;;;-6.40;90.50;;;;;;5093037;28;20362;-78
2022/12/02 11:10:40;;;;;;;40.35;22.30;;;-6.40;90.50;;;;;;5092719;28;20088;-79
2022/12/02 11:13:45;;;;;;;41.17;24.15;;;-6.40;90.60;;;;;;5093063;28;20028;-79
2022/12/02 11:16:34;;;;;;;42.60;21.55;;;-6.40;90.60;;;;;;5081584;28;20488;-81
2022/12/02 11:19:12;;;;;;;40.15;22.17;;;-6.40;90.60;;;;;;5067828;28;20028;-78
2022/12/02 11:21:43;;;;;;;45.83;23.45;;;-6.40;90.60;;;;;;5075844;28;20066;-80
2022/12/02 11:24:27;;;;;;;42.70;22.10;;;-6.40;90.70;;;;;;5075571;28;20081;-79
2022/12/02 11:26:59;;;;;;;39.60;21.55;;;-6.40;90.70;;;;;;5076926;28;20110;-80
2022/12/02 11:29:53;;;;;;;39.10;20.70;;;-6.40;90.70;;;;;;5094381;28;20024;-82
2022/12/02 11:32:25;;;;;;;39.95;18.42;;;-6.40;90.70;;;;;;5092549;28;20082;-81
2022/12/02 11:34:58;;;;;;;33.97;19.98;;;-6.40;90.70;;;;;;5092122;28;20024;-80
2022/12/02 11:37:26;;;;;;;36.45;18.35;;;-6.40;90.70;;;;;;5091424;28;20016;-79
2022/12/02 11:39:54;;;;;;;33.47;18.70;;;-6.40;90.70;;;;;;5086553;28;20017;-80
2022/12/02 11:42:21;;;;;;;;;;;-6.40;90.80;;;;;;5088282;28;20047;-79
2022/12/02 11:44:48;;;;;;;32.10;19.92;;;-6.40;90.80;;;;;;5094901;28;19908;-80
2022/12/02 11:47:28;;;;;;;36.03;19.45;;;-6.50;90.80;;;;;;5095352;28;20027;-79
2022/12/02 11:50:11;;;;;;;32.72;18.15;;;-6.40;90.90;;;;;;5092355;28;20450;-78
2022/12/02 11:53:17;;;;;;;32.40;17.83;;;-6.50;90.90;;;;;;5091947;28;20055;-79
2022/12/02 11:55:52;;;;;;;34.72;19.08;;;-6.50;90.90;;;;;;5091447;28;20035;-78
2022/12/02 11:58:22;;;;;;;33.58;19.38;;;-6.50;90.80;;;;;;5073998;28;20035;-79
2022/12/02 12:01:19;;;;;;;34.70;18.00;;;-6.60;90.80;;;;;;5074046;28;20040;-80
2022/12/02 12:03:47;;;;;;;34.58;18.95;;;-6.50;91.00;;;;;;5075596;28;20409;-79
2022/12/02 12:06:13;;;;;;;37.22;18.90;;;-6.50;91.00;;;;;;5094099;28;20027;-79
2022/12/02 12:08:43;;;;;;;40.17;22.88;;;-6.50;91.00;;;;;;5094161;28;20020;-79
2022/12/02 12:11:20;;;;;;;45.33;21.85;;;-6.50;90.80;;;;;;5075148;28;20048;-79
2022/12/02 12:14:11;;;;;;;36.10;23.50;;;-6.60;90.80;;;;;;5100573;28;20028;-80
2022/12/02 12:16:46;;;;;;;44.13;20.92;;;-6.60;90.90;;;;;;5078713;28;20055;-81
2022/12/02 12:19:12;;;;;;;40.97;21.20;;;-6.60;91.00;;;;;;5093475;28;20055;-81
2022/12/02 12:21:46;;;;;;;36.97;18.75;;;-6.60;91.10;;;;;;5076108;28;20497;-81
2022/12/02 12:24:19;;;;;;;37.63;23.65;;;-6.60;91.20;;;;;;5075246;28;20051;-80
2022/12/02 12:27:03;;;;;;;41.80;20.40;;;-6.60;91.20;;;;;;5092435;28;20115;-79
2022/12/02 12:29:36;;;;;;;32.63;19.75;;;-6.60;91.30;;;;;;5091081;28;20389;-82
2022/12/02 12:32:04;;;;;;;34.72;20.02;;;-6.60;91.30;;;;;;5093822;28;20389;-83
2022/12/02 12:34:32;;;;;;;39.78;21.90;;;-6.60;91.30;;;;;;5093100;28;20046;-82
2022/12/02 12:36:58;;;;;;;40.70;21.40;;;-6.70;91.30;;;;;;5078267;28;20020;-83
2022/12/02 12:39:24;;;;;;;28.53;18.00;;;-6.70;91.40;;;;;;5093468;28;20070;-82
2022/12/02 12:41:50;;;;;;;42.33;22.23;;;-6.70;91.40;;;;;;5094527;28;20289;-82
2022/12/02 12:44:16;;;;;;;38.30;22.10;;;-6.70;91.40;;;;;;5075346;28;20362;-79